sensor_id;sensor_type;location;lat;lon;timestamp;P1;durP1;ratioP1;P2;durP2;ratioP2
20758;SDS011;10539;53.686;9.158;2023-02-17T00:00:05;141.20;;;50.77;;
20758;SDS011;10539;53.686;9.158;2023-02-17T00:02:32;145.17;;;49.27;;
20758;SDS011;10539;53.686;9.158;2023-02-17T00:05:01;146.90;;;50.13;;
20758;SDS011;10539;53.686;9.158;2023-02-17T00:07:29;150.57;;;50.13;;
20758;SDS011;10539;53.686;9.158;2023-02-17T00:09:56;125.47;;;45.00;;
20758;SDS011;10539;53.686;9.158;2023-02-17T00:12:22;140.37;;;50.73;;
20758;SDS011;10539;53.686;9.158;2023-02-17T00:14:48;137.27;;;46.70;;
20758;SDS011;10539;53.686;9.158;2023-02-17T00:17:14;134.27;;;47.70;;
20758;SDS011;10539;53.686;9.158;2023-02-17T00:19:40;128.40;;;43.70;;
20758;SDS011;10539;53.686;9.158;2023-02-17T00:22:06;113.10;;;41.73;;
20758;SDS011;10539;53.686;9.158;2023-02-17T00:24:32;106.53;;;40.03;;
20758;SDS011;10539;53.686;9.158;2023-02-17T00:27:01;114.77;;;42.07;;
20758;SDS011;10539;53.686;9.158;2023-02-17T00:29:27;150.00;;;48.07;;
20758;SDS011;10539;53.686;9.158;2023-02-17T00:31:53;111.20;;;40.73;;
20758;SDS011;10539;53.686;9.158;2023-02-17T00:34:19;99.40;;;37.67;;
20758;SDS011;10539;53.686;9.158;2023-02-17T00:36:45;122.00;;;42.93;;
20758;SDS011;10539;53.686;9.158;2023-02-17T00:39:11;117.90;;;41.97;;
20758;SDS011;10539;53.686;9.158;2023-02-17T00:41:39;99.87;;;38.40;;
20758;SDS011;10539;53.686;9.158;2023-02-17T00:44:04;95.80;;;36.67;;
20758;SDS011;10539;53.686;9.158;2023-02-17T00:46:30;80.07;;;33.90;;
20758;SDS011;10539;53.686;9.158;2023-02-17T00:48:56;81.30;;;31.57;;
20758;SDS011;10539;53.686;9.158;2023-02-17T00:51:23;91.23;;;35.93;;
20758;SDS011;10539;53.686;9.158;2023-02-17T00:53:49;96.07;;;36.23;;
20758;SDS011;10539;53.686;9.158;2023-02-17T00:56:15;96.43;;;35.33;;
20758;SDS011;10539;53.686;9.158;2023-02-17T00:58:41;78.63;;;32.77;;
20758;SDS011;10539;53.686;9.158;2023-02-17T01:01:07;86.60;;;33.07;;
20758;SDS011;10539;53.686;9.158;2023-02-17T01:03:34;81.33;;;34.37;;
20758;SDS011;10539;53.686;9.158;2023-02-17T01:06:04;96.83;;;34.70;;
20758;SDS011;10539;53.686;9.158;2023-02-17T01:08:34;74.73;;;30.23;;
20758;SDS011;10539;53.686;9.158;2023-02-17T01:11:00;75.40;;;29.50;;
20758;SDS011;10539;53.686;9.158;2023-02-17T01:13:26;80.93;;;30.60;;
20758;SDS011;10539;53.686;9.158;2023-02-17T01:15:52;62.43;;;26.67;;
20758;SDS011;10539;53.686;9.158;2023-02-17T01:18:19;80.83;;;30.80;;
20758;SDS011;10539;53.686;9.158;2023-02-17T01:20:47;81.87;;;31.43;;
20758;SDS011;10539;53.686;9.158;2023-02-17T01:23:13;64.00;;;26.33;;
20758;SDS011;10539;53.686;9.158;2023-02-17T01:25:39;75.47;;;28.50;;
20758;SDS011;10539;53.686;9.158;2023-02-17T01:28:06;73.73;;;28.33;;
20758;SDS011;10539;53.686;9.158;2023-02-17T01:30:32;80.00;;;29.27;;
20758;SDS011;10539;53.686;9.158;2023-02-17T01:32:58;71.83;;;26.27;;
20758;SDS011;10539;53.686;9.158;2023-02-17T01:35:24;73.60;;;26.33;;
20758;SDS011;10539;53.686;9.158;2023-02-17T01:37:50;51.50;;;22.97;;
20758;SDS011;10539;53.686;9.158;2023-02-17T01:40:16;67.93;;;25.70;;
20758;SDS011;10539;53.686;9.158;2023-02-17T01:42:42;76.00;;;26.60;;
20758;SDS011;10539;53.686;9.158;2023-02-17T01:47:43;60.03;;;23.67;;
20758;SDS011;10539;53.686;9.158;2023-02-17T01:50:11;55.93;;;22.63;;
20758;SDS011;10539;53.686;9.158;2023-02-17T01:52:37;61.33;;;22.97;;
20758;SDS011;10539;53.686;9.158;2023-02-17T01:55:06;57.73;;;23.27;;
20758;SDS011;10539;53.686;9.158;2023-02-17T01:57:35;48.17;;;20.07;;
20758;SDS011;10539;53.686;9.158;2023-02-17T02:00:06;43.63;;;17.23;;
20758;SDS011;10539;53.686;9.158;2023-02-17T02:02:34;47.87;;;19.30;;
20758;SDS011;10539;53.686;9.158;2023-02-17T02:05:00;53.30;;;20.63;;
20758;SDS011;10539;53.686;9.158;2023-02-17T02:07:28;51.83;;;19.73;;
20758;SDS011;10539;53.686;9.158;2023-02-17T02:09:56;54.70;;;20.53;;
20758;SDS011;10539;53.686;9.158;2023-02-17T02:12:30;51.67;;;19.83;;
20758;SDS011;10539;53.686;9.158;2023-02-17T02:14:58;48.87;;;19.07;;
20758;SDS011;10539;53.686;9.158;2023-02-17T02:20:16;45.70;;;17.47;;
20758;SDS011;10539;53.686;9.158;2023-02-17T02:25:34;49.57;;;19.57;;
20758;SDS011;10539;53.686;9.158;2023-02-17T02:28:35;42.73;;;15.90;;
20758;SDS011;10539;53.686;9.158;2023-02-17T02:31:02;41.73;;;16.63;;
20758;SDS011;10539;53.686;9.158;2023-02-17T02:33:33;43.63;;;16.77;;
20758;SDS011;10539;53.686;9.158;2023-02-17T02:38:48;44.67;;;16.20;;
20758;SDS011;10539;53.686;9.158;2023-02-17T02:41:26;49.80;;;19.80;;
20758;SDS011;10539;53.686;9.158;2023-02-17T02:44:03;55.90;;;20.17;;
20758;SDS011;10539;53.686;9.158;2023-02-17T02:46:31;56.30;;;21.23;;
20758;SDS011;10539;53.686;9.158;2023-02-17T02:48:56;53.20;;;21.13;;
20758;SDS011;10539;53.686;9.158;2023-02-17T02:51:30;47.87;;;18.43;;
20758;SDS011;10539;53.686;9.158;2023-02-17T02:54:43;54.90;;;20.60;;
20758;SDS011;10539;53.686;9.158;2023-02-17T02:57:33;54.47;;;20.10;;
20758;SDS011;10539;53.686;9.158;2023-02-17T03:00:32;52.03;;;19.67;;
20758;SDS011;10539;53.686;9.158;2023-02-17T03:03:09;53.23;;;20.93;;
20758;SDS011;10539;53.686;9.158;2023-02-17T03:05:50;46.80;;;17.33;;
20758;SDS011;10539;53.686;9.158;2023-02-17T03:08:34;48.87;;;18.47;;
20758;SDS011;10539;53.686;9.158;2023-02-17T03:11:06;49.93;;;18.10;;
20758;SDS011;10539;53.686;9.158;2023-02-17T03:13:35;50.43;;;19.73;;
20758;SDS011;10539;53.686;9.158;2023-02-17T03:16:04;50.23;;;20.73;;
20758;SDS011;10539;53.686;9.158;2023-02-17T03:18:32;49.83;;;16.83;;
20758;SDS011;10539;53.686;9.158;2023-02-17T03:21:00;64.07;;;20.80;;
20758;SDS011;10539;53.686;9.158;2023-02-17T03:23:28;61.20;;;22.37;;
20758;SDS011;10539;53.686;9.158;2023-02-17T03:25:54;55.23;;;20.70;;
20758;SDS011;10539;53.686;9.158;2023-02-17T03:28:20;64.00;;;21.80;;
20758;SDS011;10539;53.686;9.158;2023-02-17T03:30:46;56.10;;;20.17;;
20758;SDS011;10539;53.686;9.158;2023-02-17T03:33:12;60.67;;;22.13;;
20758;SDS011;10539;53.686;9.158;2023-02-17T03:35:38;54.97;;;19.57;;
20758;SDS011;10539;53.686;9.158;2023-02-17T03:38:03;57.60;;;20.13;;
20758;SDS011;10539;53.686;9.158;2023-02-17T03:40:30;54.00;;;18.87;;
20758;SDS011;10539;53.686;9.158;2023-02-17T03:42:56;63.43;;;20.53;;
20758;SDS011;10539;53.686;9.158;2023-02-17T03:45:22;62.60;;;20.97;;
20758;SDS011;10539;53.686;9.158;2023-02-17T03:47:48;60.40;;;21.03;;
20758;SDS011;10539;53.686;9.158;2023-02-17T03:50:13;53.00;;;17.43;;
20758;SDS011;10539;53.686;9.158;2023-02-17T03:52:39;45.40;;;16.63;;
20758;SDS011;10539;53.686;9.158;2023-02-17T03:55:05;58.20;;;18.77;;
20758;SDS011;10539;53.686;9.158;2023-02-17T03:57:31;68.27;;;21.83;;
20758;SDS011;10539;53.686;9.158;2023-02-17T03:59:59;53.17;;;19.77;;
20758;SDS011;10539;53.686;9.158;2023-02-17T04:02:24;61.20;;;20.77;;
20758;SDS011;10539;53.686;9.158;2023-02-17T04:04:50;65.53;;;20.70;;
20758;SDS011;10539;53.686;9.158;2023-02-17T04:07:16;68.23;;;21.07;;
20758;SDS011;10539;53.686;9.158;2023-02-17T04:09:42;63.13;;;20.93;;
20758;SDS011;10539;53.686;9.158;2023-02-17T04:12:07;63.37;;;21.57;;
20758;SDS011;10539;53.686;9.158;2023-02-17T04:14:33;76.07;;;22.20;;
20758;SDS011;10539;53.686;9.158;2023-02-17T04:16:59;62.97;;;20.87;;
20758;SDS011;10539;53.686;9.158;2023-02-17T04:19:25;63.33;;;19.60;;
20758;SDS011;10539;53.686;9.158;2023-02-17T04:21:50;67.30;;;21.97;;
20758;SDS011;10539;53.686;9.158;2023-02-17T04:24:16;48.63;;;15.57;;
20758;SDS011;10539;53.686;9.158;2023-02-17T04:26:42;59.40;;;19.87;;
20758;SDS011;10539;53.686;9.158;2023-02-17T04:29:08;72.97;;;22.57;;
20758;SDS011;10539;53.686;9.158;2023-02-17T04:31:33;67.37;;;22.77;;
20758;SDS011;10539;53.686;9.158;2023-02-17T04:33:59;63.83;;;20.33;;
20758;SDS011;10539;53.686;9.158;2023-02-17T04:36:25;67.27;;;21.67;;
20758;SDS011;10539;53.686;9.158;2023-02-17T04:38:50;62.20;;;19.10;;
20758;SDS011;10539;53.686;9.158;2023-02-17T04:41:16;60.43;;;21.77;;
20758;SDS011;10539;53.686;9.158;2023-02-17T04:43:42;40.47;;;14.30;;
20758;SDS011;10539;53.686;9.158;2023-02-17T04:46:07;71.50;;;21.83;;
20758;SDS011;10539;53.686;9.158;2023-02-17T04:48:36;59.40;;;20.00;;
20758;SDS011;10539;53.686;9.158;2023-02-17T04:51:02;66.93;;;21.70;;
20758;SDS011;10539;53.686;9.158;2023-02-17T04:53:27;58.80;;;21.17;;
20758;SDS011;10539;53.686;9.158;2023-02-17T04:55:53;65.20;;;23.90;;
20758;SDS011;10539;53.686;9.158;2023-02-17T04:58:19;64.20;;;21.43;;
20758;SDS011;10539;53.686;9.158;2023-02-17T05:00:46;73.90;;;24.03;;
20758;SDS011;10539;53.686;9.158;2023-02-17T05:03:12;58.23;;;20.53;;
20758;SDS011;10539;53.686;9.158;2023-02-17T05:05:38;68.40;;;22.53;;
20758;SDS011;10539;53.686;9.158;2023-02-17T05:08:04;70.07;;;24.17;;
20758;SDS011;10539;53.686;9.158;2023-02-17T05:10:30;74.30;;;25.07;;
20758;SDS011;10539;53.686;9.158;2023-02-17T05:12:55;64.23;;;23.47;;
20758;SDS011;10539;53.686;9.158;2023-02-17T05:15:21;68.10;;;23.23;;
20758;SDS011;10539;53.686;9.158;2023-02-17T05:17:47;71.77;;;23.57;;
20758;SDS011;10539;53.686;9.158;2023-02-17T05:20:12;69.60;;;25.50;;
20758;SDS011;10539;53.686;9.158;2023-02-17T05:22:38;70.23;;;26.30;;
20758;SDS011;10539;53.686;9.158;2023-02-17T05:25:04;68.93;;;24.20;;
20758;SDS011;10539;53.686;9.158;2023-02-17T05:27:30;68.00;;;23.23;;
20758;SDS011;10539;53.686;9.158;2023-02-17T05:29:56;63.10;;;23.37;;
20758;SDS011;10539;53.686;9.158;2023-02-17T05:32:22;66.63;;;25.53;;
20758;SDS011;10539;53.686;9.158;2023-02-17T05:34:48;69.73;;;24.87;;
20758;SDS011;10539;53.686;9.158;2023-02-17T05:37:13;71.40;;;25.50;;
20758;SDS011;10539;53.686;9.158;2023-02-17T05:39:39;56.50;;;21.40;;
20758;SDS011;10539;53.686;9.158;2023-02-17T05:42:05;66.10;;;24.77;;
20758;SDS011;10539;53.686;9.158;2023-02-17T05:44:30;64.97;;;22.93;;
20758;SDS011;10539;53.686;9.158;2023-02-17T05:46:56;70.97;;;25.83;;
20758;SDS011;10539;53.686;9.158;2023-02-17T05:49:22;60.43;;;23.13;;
20758;SDS011;10539;53.686;9.158;2023-02-17T05:51:47;54.60;;;19.33;;
20758;SDS011;10539;53.686;9.158;2023-02-17T05:54:13;58.47;;;23.57;;
20758;SDS011;10539;53.686;9.158;2023-02-17T05:56:39;44.27;;;17.07;;
20758;SDS011;10539;53.686;9.158;2023-02-17T05:59:04;61.17;;;23.63;;
20758;SDS011;10539;53.686;9.158;2023-02-17T06:01:30;63.87;;;24.57;;
20758;SDS011;10539;53.686;9.158;2023-02-17T06:03:56;65.93;;;25.43;;
20758;SDS011;10539;53.686;9.158;2023-02-17T06:06:22;48.57;;;19.17;;
20758;SDS011;10539;53.686;9.158;2023-02-17T06:08:48;53.97;;;22.83;;
20758;SDS011;10539;53.686;9.158;2023-02-17T06:11:13;59.23;;;23.63;;
20758;SDS011;10539;53.686;9.158;2023-02-17T06:13:39;57.87;;;21.90;;
20758;SDS011;10539;53.686;9.158;2023-02-17T06:16:05;63.23;;;24.30;;
20758;SDS011;10539;53.686;9.158;2023-02-17T06:18:31;52.83;;;22.50;;
20758;SDS011;10539;53.686;9.158;2023-02-17T06:20:57;53.00;;;22.47;;
20758;SDS011;10539;53.686;9.158;2023-02-17T06:23:23;56.63;;;21.63;;
20758;SDS011;10539;53.686;9.158;2023-02-17T06:25:50;48.63;;;21.67;;
20758;SDS011;10539;53.686;9.158;2023-02-17T06:28:15;50.07;;;20.70;;
20758;SDS011;10539;53.686;9.158;2023-02-17T06:30:41;54.37;;;24.83;;
20758;SDS011;10539;53.686;9.158;2023-02-17T06:33:07;54.30;;;22.13;;
20758;SDS011;10539;53.686;9.158;2023-02-17T06:35:32;53.13;;;21.97;;
20758;SDS011;10539;53.686;9.158;2023-02-17T06:37:58;50.63;;;21.10;;
20758;SDS011;10539;53.686;9.158;2023-02-17T06:40:24;53.53;;;22.93;;
20758;SDS011;10539;53.686;9.158;2023-02-17T06:42:50;53.23;;;23.57;;
20758;SDS011;10539;53.686;9.158;2023-02-17T06:45:15;48.80;;;19.27;;
20758;SDS011;10539;53.686;9.158;2023-02-17T06:47:41;58.13;;;24.07;;
20758;SDS011;10539;53.686;9.158;2023-02-17T06:50:07;46.93;;;19.83;;
20758;SDS011;10539;53.686;9.158;2023-02-17T06:52:33;55.27;;;24.80;;
20758;SDS011;10539;53.686;9.158;2023-02-17T06:54:59;48.77;;;18.23;;
20758;SDS011;10539;53.686;9.158;2023-02-17T06:57:25;49.23;;;21.60;;
20758;SDS011;10539;53.686;9.158;2023-02-17T06:59:51;38.97;;;16.63;;
20758;SDS011;10539;53.686;9.158;2023-02-17T07:02:16;50.43;;;22.07;;
20758;SDS011;10539;53.686;9.158;2023-02-17T07:04:42;49.87;;;19.83;;
20758;SDS011;10539;53.686;9.158;2023-02-17T07:07:08;46.03;;;19.73;;
20758;SDS011;10539;53.686;9.158;2023-02-17T07:09:35;54.80;;;22.07;;
20758;SDS011;10539;53.686;9.158;2023-02-17T07:12:01;37.63;;;17.50;;
20758;SDS011;10539;53.686;9.158;2023-02-17T07:14:27;38.23;;;16.10;;
20758;SDS011;10539;53.686;9.158;2023-02-17T07:16:53;46.17;;;19.80;;
20758;SDS011;10539;53.686;9.158;2023-02-17T07:19:18;44.77;;;19.70;;
20758;SDS011;10539;53.686;9.158;2023-02-17T07:21:44;32.07;;;14.20;;
20758;SDS011;10539;53.686;9.158;2023-02-17T07:24:10;32.77;;;14.83;;
20758;SDS011;10539;53.686;9.158;2023-02-17T07:26:37;37.23;;;17.93;;
20758;SDS011;10539;53.686;9.158;2023-02-17T07:29:04;41.50;;;18.13;;
20758;SDS011;10539;53.686;9.158;2023-02-17T07:31:32;24.97;;;12.23;;
20758;SDS011;10539;53.686;9.158;2023-02-17T07:33:59;26.43;;;12.73;;
20758;SDS011;10539;53.686;9.158;2023-02-17T07:36:25;36.13;;;15.77;;
20758;SDS011;10539;53.686;9.158;2023-02-17T07:38:50;29.20;;;13.47;;
20758;SDS011;10539;53.686;9.158;2023-02-17T07:41:17;32.03;;;15.23;;
20758;SDS011;10539;53.686;9.158;2023-02-17T07:43:45;34.03;;;12.97;;
20758;SDS011;10539;53.686;9.158;2023-02-17T07:46:12;35.90;;;15.43;;
20758;SDS011;10539;53.686;9.158;2023-02-17T07:48:38;38.50;;;16.23;;
20758;SDS011;10539;53.686;9.158;2023-02-17T07:51:07;29.07;;;12.97;;
20758;SDS011;10539;53.686;9.158;2023-02-17T07:53:35;33.63;;;14.70;;
20758;SDS011;10539;53.686;9.158;2023-02-17T07:56:01;32.73;;;15.03;;
20758;SDS011;10539;53.686;9.158;2023-02-17T07:58:29;32.97;;;14.50;;
20758;SDS011;10539;53.686;9.158;2023-02-17T08:00:57;37.80;;;15.10;;
20758;SDS011;10539;53.686;9.158;2023-02-17T08:03:23;33.17;;;14.10;;
20758;SDS011;10539;53.686;9.158;2023-02-17T08:05:48;33.87;;;13.13;;
20758;SDS011;10539;53.686;9.158;2023-02-17T08:08:15;35.70;;;14.33;;
20758;SDS011;10539;53.686;9.158;2023-02-17T08:11:00;23.83;;;10.07;;
20758;SDS011;10539;53.686;9.158;2023-02-17T08:13:44;29.80;;;12.73;;
20758;SDS011;10539;53.686;9.158;2023-02-17T08:16:10;30.23;;;13.30;;
20758;SDS011;10539;53.686;9.158;2023-02-17T08:18:36;31.00;;;11.30;;
20758;SDS011;10539;53.686;9.158;2023-02-17T08:21:02;31.37;;;12.80;;
20758;SDS011;10539;53.686;9.158;2023-02-17T08:23:27;24.17;;;11.27;;
20758;SDS011;10539;53.686;9.158;2023-02-17T08:25:55;29.00;;;11.80;;
20758;SDS011;10539;53.686;9.158;2023-02-17T08:28:22;24.77;;;10.50;;
20758;SDS011;10539;53.686;9.158;2023-02-17T08:30:48;33.43;;;12.60;;
20758;SDS011;10539;53.686;9.158;2023-02-17T08:33:14;25.03;;;10.23;;
20758;SDS011;10539;53.686;9.158;2023-02-17T08:35:45;36.93;;;14.43;;
20758;SDS011;10539;53.686;9.158;2023-02-17T08:38:11;31.53;;;13.00;;
20758;SDS011;10539;53.686;9.158;2023-02-17T08:40:37;30.43;;;12.80;;
20758;SDS011;10539;53.686;9.158;2023-02-17T08:43:05;27.17;;;11.47;;
20758;SDS011;10539;53.686;9.158;2023-02-17T08:45:32;30.37;;;11.43;;
20758;SDS011;10539;53.686;9.158;2023-02-17T08:47:58;22.13;;;9.43;;
20758;SDS011;10539;53.686;9.158;2023-02-17T08:50:24;21.57;;;10.43;;
20758;SDS011;10539;53.686;9.158;2023-02-17T08:52:50;18.67;;;7.77;;
20758;SDS011;10539;53.686;9.158;2023-02-17T08:55:15;28.17;;;10.23;;
20758;SDS011;10539;53.686;9.158;2023-02-17T08:57:43;27.23;;;10.63;;
20758;SDS011;10539;53.686;9.158;2023-02-17T09:00:09;22.60;;;9.73;;
20758;SDS011;10539;53.686;9.158;2023-02-17T09:02:35;26.77;;;9.73;;
20758;SDS011;10539;53.686;9.158;2023-02-17T09:05:02;19.90;;;9.43;;
20758;SDS011;10539;53.686;9.158;2023-02-17T09:07:29;29.17;;;11.37;;
20758;SDS011;10539;53.686;9.158;2023-02-17T09:09:55;21.10;;;8.07;;
20758;SDS011;10539;53.686;9.158;2023-02-17T09:12:22;28.17;;;10.47;;
20758;SDS011;10539;53.686;9.158;2023-02-17T09:14:47;32.27;;;10.23;;
20758;SDS011;10539;53.686;9.158;2023-02-17T09:17:13;24.67;;;9.30;;
20758;SDS011;10539;53.686;9.158;2023-02-17T09:19:39;34.30;;;12.90;;
20758;SDS011;10539;53.686;9.158;2023-02-17T09:22:05;31.47;;;10.23;;
20758;SDS011;10539;53.686;9.158;2023-02-17T09:24:30;29.97;;;10.90;;
20758;SDS011;10539;53.686;9.158;2023-02-17T09:26:58;24.00;;;7.57;;
20758;SDS011;10539;53.686;9.158;2023-02-17T09:29:25;22.90;;;8.80;;
20758;SDS011;10539;53.686;9.158;2023-02-17T09:31:51;31.93;;;11.93;;
20758;SDS011;10539;53.686;9.158;2023-02-17T09:34:17;39.90;;;13.50;;
20758;SDS011;10539;53.686;9.158;2023-02-17T09:36:43;48.40;;;16.37;;
20758;SDS011;10539;53.686;9.158;2023-02-17T09:39:09;32.87;;;13.07;;
20758;SDS011;10539;53.686;9.158;2023-02-17T09:47:33;47.23;;;16.73;;
20758;SDS011;10539;53.686;9.158;2023-02-17T09:49:48;45.83;;;15.93;;
20758;SDS011;10539;53.686;9.158;2023-02-17T09:52:23;51.90;;;17.70;;
20758;SDS011;10539;53.686;9.158;2023-02-17T09:57:53;39.10;;;13.03;;
20758;SDS011;10539;53.686;9.158;2023-02-17T10:00:35;37.73;;;13.50;;
20758;SDS011;10539;53.686;9.158;2023-02-17T10:03:23;43.33;;;14.07;;
20758;SDS011;10539;53.686;9.158;2023-02-17T10:08:31;35.97;;;13.83;;
20758;SDS011;10539;53.686;9.158;2023-02-17T10:11:10;46.73;;;17.13;;
20758;SDS011;10539;53.686;9.158;2023-02-17T10:13:52;44.73;;;16.90;;
20758;SDS011;10539;53.686;9.158;2023-02-17T10:16:27;53.23;;;17.83;;
20758;SDS011;10539;53.686;9.158;2023-02-17T10:19:00;38.20;;;12.80;;
20758;SDS011;10539;53.686;9.158;2023-02-17T10:21:43;53.20;;;17.77;;
20758;SDS011;10539;53.686;9.158;2023-02-17T10:24:15;41.93;;;14.57;;
20758;SDS011;10539;53.686;9.158;2023-02-17T10:37:11;40.17;;;11.60;;
20758;SDS011;10539;53.686;9.158;2023-02-17T10:39:54;48.57;;;15.37;;
20758;SDS011;10539;53.686;9.158;2023-02-17T10:47:35;32.80;;;12.20;;
20758;SDS011;10539;53.686;9.158;2023-02-17T10:50:04;39.53;;;14.20;;
20758;SDS011;10539;53.686;9.158;2023-02-17T10:52:52;51.20;;;16.10;;
20758;SDS011;10539;53.686;9.158;2023-02-17T10:55:34;68.53;;;21.53;;
20758;SDS011;10539;53.686;9.158;2023-02-17T10:58:45;53.77;;;18.73;;
20758;SDS011;10539;53.686;9.158;2023-02-17T11:01:19;62.53;;;21.27;;
20758;SDS011;10539;53.686;9.158;2023-02-17T11:03:57;34.50;;;11.47;;
20758;SDS011;10539;53.686;9.158;2023-02-17T11:06:28;46.67;;;15.43;;
20758;SDS011;10539;53.686;9.158;2023-02-17T11:08:59;53.27;;;15.83;;
20758;SDS011;10539;53.686;9.158;2023-02-17T11:11:31;57.43;;;20.40;;
20758;SDS011;10539;53.686;9.158;2023-02-17T11:16:37;61.70;;;20.83;;
20758;SDS011;10539;53.686;9.158;2023-02-17T11:19:16;38.40;;;14.47;;
20758;SDS011;10539;53.686;9.158;2023-02-17T11:21:54;42.13;;;13.73;;
20758;SDS011;10539;53.686;9.158;2023-02-17T11:24:22;47.30;;;15.83;;
20758;SDS011;10539;53.686;9.158;2023-02-17T11:27:09;40.83;;;15.53;;
20758;SDS011;10539;53.686;9.158;2023-02-17T11:29:36;39.03;;;10.53;;
20758;SDS011;10539;53.686;9.158;2023-02-17T11:32:03;36.37;;;11.70;;
20758;SDS011;10539;53.686;9.158;2023-02-17T11:34:37;42.47;;;12.43;;
20758;SDS011;10539;53.686;9.158;2023-02-17T11:39:41;27.67;;;11.47;;
20758;SDS011;10539;53.686;9.158;2023-02-17T11:44:48;25.97;;;9.10;;
20758;SDS011;10539;53.686;9.158;2023-02-17T11:47:38;30.33;;;9.00;;
20758;SDS011;10539;53.686;9.158;2023-02-17T12:03:42;25.37;;;8.30;;
20758;SDS011;10539;53.686;9.158;2023-02-17T12:11:51;25.00;;;9.73;;
20758;SDS011;10539;53.686;9.158;2023-02-17T12:14:43;31.67;;;9.90;;
20758;SDS011;10539;53.686;9.158;2023-02-17T12:25:43;22.70;;;7.53;;
20758;SDS011;10539;53.686;9.158;2023-02-17T12:31:10;30.47;;;11.03;;
20758;SDS011;10539;53.686;9.158;2023-02-17T12:36:48;24.90;;;9.07;;
20758;SDS011;10539;53.686;9.158;2023-02-17T12:39:17;27.40;;;9.83;;
20758;SDS011;10539;53.686;9.158;2023-02-17T12:41:49;24.97;;;9.47;;
20758;SDS011;10539;53.686;9.158;2023-02-17T12:44:36;25.03;;;9.47;;
20758;SDS011;10539;53.686;9.158;2023-02-17T12:47:09;26.33;;;9.57;;
20758;SDS011;10539;53.686;9.158;2023-02-17T12:49:45;22.50;;;8.93;;
20758;SDS011;10539;53.686;9.158;2023-02-17T12:52:26;24.40;;;9.13;;
20758;SDS011;10539;53.686;9.158;2023-02-17T12:57:48;21.47;;;8.30;;
20758;SDS011;10539;53.686;9.158;2023-02-17T13:00:21;23.33;;;8.13;;
20758;SDS011;10539;53.686;9.158;2023-02-17T13:02:51;16.70;;;6.30;;
20758;SDS011;10539;53.686;9.158;2023-02-17T13:05:33;23.83;;;8.40;;
20758;SDS011;10539;53.686;9.158;2023-02-17T13:08:23;24.13;;;7.47;;
20758;SDS011;10539;53.686;9.158;2023-02-17T13:11:25;17.37;;;6.13;;
20758;SDS011;10539;53.686;9.158;2023-02-17T13:13:53;18.50;;;5.77;;
20758;SDS011;10539;53.686;9.158;2023-02-17T13:16:18;15.87;;;5.70;;
20758;SDS011;10539;53.686;9.158;2023-02-17T13:18:45;12.33;;;4.83;;
20758;SDS011;10539;53.686;9.158;2023-02-17T13:26:29;13.03;;;4.30;;
20758;SDS011;10539;53.686;9.158;2023-02-17T13:31:51;7.50;;;3.23;;
20758;SDS011;10539;53.686;9.158;2023-02-17T13:36:53;12.77;;;2.90;;
20758;SDS011;10539;53.686;9.158;2023-02-17T13:41:51;9.67;;;2.13;;
20758;SDS011;10539;53.686;9.158;2023-02-17T13:47:20;15.70;;;2.53;;
20758;SDS011;10539;53.686;9.158;2023-02-17T13:49:54;13.97;;;2.27;;
20758;SDS011;10539;53.686;9.158;2023-02-17T13:52:22;9.70;;;1.67;;
20758;SDS011;10539;53.686;9.158;2023-02-17T13:55:00;7.27;;;1.30;;
20758;SDS011;10539;53.686;9.158;2023-02-17T13:57:32;10.20;;;2.07;;
20758;SDS011;10539;53.686;9.158;2023-02-17T14:00:18;12.70;;;2.07;;
20758;SDS011;10539;53.686;9.158;2023-02-17T14:05:22;9.10;;;1.77;;
20758;SDS011;10539;53.686;9.158;2023-02-17T14:08:04;11.53;;;2.03;;
20758;SDS011;10539;53.686;9.158;2023-02-17T14:10:36;9.40;;;2.40;;
20758;SDS011;10539;53.686;9.158;2023-02-17T14:13:02;11.70;;;2.20;;
20758;SDS011;10539;53.686;9.158;2023-02-17T14:15:28;13.30;;;2.77;;
20758;SDS011;10539;53.686;9.158;2023-02-17T14:17:55;13.07;;;2.37;;
20758;SDS011;10539;53.686;9.158;2023-02-17T14:20:34;7.20;;;1.67;;
20758;SDS011;10539;53.686;9.158;2023-02-17T14:23:01;8.63;;;2.33;;
20758;SDS011;10539;53.686;9.158;2023-02-17T14:25:34;5.03;;;1.40;;
20758;SDS011;10539;53.686;9.158;2023-02-17T14:28:02;15.20;;;2.13;;
20758;SDS011;10539;53.686;9.158;2023-02-17T14:30:35;11.80;;;1.57;;
20758;SDS011;10539;53.686;9.158;2023-02-17T14:33:07;14.87;;;2.97;;
20758;SDS011;10539;53.686;9.158;2023-02-17T14:35:55;9.77;;;1.83;;
20758;SDS011;10539;53.686;9.158;2023-02-17T14:38:27;14.63;;;2.83;;
20758;SDS011;10539;53.686;9.158;2023-02-17T14:40:56;15.60;;;3.07;;
20758;SDS011;10539;53.686;9.158;2023-02-17T14:43:25;22.33;;;4.20;;
20758;SDS011;10539;53.686;9.158;2023-02-17T14:45:51;11.57;;;2.20;;
20758;SDS011;10539;53.686;9.158;2023-02-17T14:48:17;20.30;;;3.13;;
20758;SDS011;10539;53.686;9.158;2023-02-17T14:50:43;18.63;;;3.43;;
20758;SDS011;10539;53.686;9.158;2023-02-17T14:55:45;28.50;;;3.63;;
20758;SDS011;10539;53.686;9.158;2023-02-17T14:58:18;26.23;;;5.03;;
20758;SDS011;10539;53.686;9.158;2023-02-17T15:00:47;22.67;;;3.77;;
20758;SDS011;10539;53.686;9.158;2023-02-17T15:03:14;17.00;;;2.13;;
20758;SDS011;10539;53.686;9.158;2023-02-17T15:05:40;32.10;;;4.97;;
20758;SDS011;10539;53.686;9.158;2023-02-17T15:08:08;25.33;;;4.30;;
20758;SDS011;10539;53.686;9.158;2023-02-17T15:10:40;23.83;;;3.57;;
20758;SDS011;10539;53.686;9.158;2023-02-17T15:13:09;26.27;;;3.87;;
20758;SDS011;10539;53.686;9.158;2023-02-17T15:15:40;28.03;;;3.90;;
20758;SDS011;10539;53.686;9.158;2023-02-17T15:18:09;26.63;;;3.87;;
20758;SDS011;10539;53.686;9.158;2023-02-17T15:20:36;22.43;;;3.13;;
20758;SDS011;10539;53.686;9.158;2023-02-17T15:23:02;26.33;;;3.83;;
20758;SDS011;10539;53.686;9.158;2023-02-17T15:25:28;19.93;;;3.10;;
20758;SDS011;10539;53.686;9.158;2023-02-17T15:27:57;14.50;;;2.53;;
20758;SDS011;10539;53.686;9.158;2023-02-17T15:30:23;20.13;;;3.60;;
20758;SDS011;10539;53.686;9.158;2023-02-17T15:32:49;20.60;;;3.17;;
20758;SDS011;10539;53.686;9.158;2023-02-17T15:35:22;24.60;;;2.90;;
20758;SDS011;10539;53.686;9.158;2023-02-17T15:37:51;13.53;;;2.27;;
20758;SDS011;10539;53.686;9.158;2023-02-17T15:40:25;24.00;;;3.03;;
20758;SDS011;10539;53.686;9.158;2023-02-17T15:42:53;19.37;;;2.97;;
20758;SDS011;10539;53.686;9.158;2023-02-17T15:45:21;18.67;;;2.90;;
20758;SDS011;10539;53.686;9.158;2023-02-17T15:47:54;12.00;;;2.63;;
20758;SDS011;10539;53.686;9.158;2023-02-17T15:50:42;21.97;;;4.27;;
20758;SDS011;10539;53.686;9.158;2023-02-17T15:53:08;27.63;;;4.23;;
20758;SDS011;10539;53.686;9.158;2023-02-17T15:55:34;23.07;;;3.33;;
20758;SDS011;10539;53.686;9.158;2023-02-17T15:58:01;24.03;;;2.37;;
20758;SDS011;10539;53.686;9.158;2023-02-17T16:00:32;25.57;;;3.17;;
20758;SDS011;10539;53.686;9.158;2023-02-17T16:02:59;29.70;;;4.10;;
20758;SDS011;10539;53.686;9.158;2023-02-17T16:05:26;21.87;;;3.83;;
20758;SDS011;10539;53.686;9.158;2023-02-17T16:07:53;24.23;;;3.43;;
20758;SDS011;10539;53.686;9.158;2023-02-17T16:10:20;26.20;;;3.30;;
20758;SDS011;10539;53.686;9.158;2023-02-17T16:12:48;23.10;;;2.97;;
20758;SDS011;10539;53.686;9.158;2023-02-17T16:15:16;25.90;;;4.80;;
20758;SDS011;10539;53.686;9.158;2023-02-17T16:17:44;18.97;;;4.13;;
20758;SDS011;10539;53.686;9.158;2023-02-17T16:22:43;14.13;;;2.47;;